createdAt,value
2022-10-19T00:00:08.274Z,99228.31
2022-10-19T00:03:31.569Z,99232.47
2022-10-19T00:06:37.687Z,99228.59
2022-10-19T00:09:40.897Z,99225.06
2022-10-19T00:12:44.602Z,99226.16
2022-10-19T00:15:49.186Z,99231.34
2022-10-19T00:18:53.034Z,99230.84
2022-10-19T00:21:57.142Z,99235.25
2022-10-19T00:25:00.863Z,99238.28
2022-10-19T00:28:03.959Z,99237.47
2022-10-19T00:31:12.791Z,99238.00
2022-10-19T00:34:15.817Z,99227.84
2022-10-19T00:37:18.963Z,99231.13
2022-10-19T00:40:22.043Z,99233.88
2022-10-19T00:43:29.139Z,99231.94
2022-10-19T00:46:37.844Z,99230.84
2022-10-19T00:49:46.983Z,99227.28
2022-10-19T00:52:50.319Z,99224.81
2022-10-19T00:55:54.495Z,99224.81
2022-10-19T00:58:57.879Z,99231.94
2022-10-19T01:02:07.024Z,99227.28
2022-10-19T01:05:12.085Z,99227.56
2022-10-19T01:08:15.470Z,99226.44
2022-10-19T01:11:40.701Z,99228.59
2022-10-19T01:15:05.191Z,99226.97
2022-10-19T01:18:22.228Z,99223.69
2022-10-19T01:21:36.543Z,99232.25
2022-10-19T01:25:21.291Z,99227.47
2022-10-19T01:28:45.900Z,99231.94
2022-10-19T01:32:02.046Z,99241.31
2022-10-19T01:35:13.525Z,99244.91
2022-10-19T01:38:30.690Z,99235.81
2022-10-19T01:41:46.932Z,99231.41
2022-10-19T01:44:55.432Z,99218.78
2022-10-19T01:48:10.898Z,99216.56
2022-10-19T01:51:20.300Z,99214.38
2022-10-19T01:54:27.576Z,99217.41
2022-10-19T01:57:37.643Z,99209.69
2022-10-19T02:00:47.217Z,99222.63
2022-10-19T02:03:54.802Z,99217.66
2022-10-19T02:06:59.550Z,99195.41
2022-10-19T02:10:02.637Z,99205.59
2022-10-19T02:13:09.053Z,99204.47
2022-10-19T02:16:20.254Z,99205.59
2022-10-19T02:19:25.174Z,99209.44
2022-10-19T02:22:29.080Z,99210.84
2022-10-19T02:25:33.601Z,99208.09
2022-10-19T02:28:37.370Z,99212.00
2022-10-19T02:31:41.042Z,99209.53
2022-10-19T02:34:45.742Z,99206.78
2022-10-19T02:37:49.157Z,99205.94
2022-10-19T02:41:05.229Z,99212.28
2022-10-19T02:44:19.733Z,99212.84
2022-10-19T02:47:32.262Z,99213.69
2022-10-19T02:50:37.599Z,99215.06
2022-10-19T02:53:40.672Z,99221.69
2022-10-19T02:56:44.160Z,99206.28
2022-10-19T02:59:47.797Z,99202.41
2022-10-19T03:02:51.442Z,99205.47
2022-10-19T03:05:56.564Z,99209.84
2022-10-19T03:09:00.296Z,99202.19
2022-10-19T03:12:04.165Z,99204.94
2022-10-19T03:15:09.472Z,99196.66
2022-10-19T03:18:12.566Z,99198.59
2022-10-19T03:21:19.371Z,99203.00
2022-10-19T03:24:22.518Z,99198.09
2022-10-19T03:27:27.478Z,99200.84
2022-10-19T03:30:30.762Z,99201.97
2022-10-19T03:33:34.468Z,99200.84
2022-10-19T03:36:41.188Z,99194.22
2022-10-19T03:39:44.656Z,99201.97
2022-10-19T03:42:47.684Z,99198.38
2022-10-19T03:45:51.031Z,99195.63
2022-10-19T03:48:54.795Z,99183.81
2022-10-19T03:51:59.597Z,99179.94
2022-10-19T03:55:02.641Z,99184.91
2022-10-19T03:58:05.975Z,99182.16
2022-10-19T04:01:12.354Z,99176.66
2022-10-19T04:04:19.965Z,99179.41
2022-10-19T04:07:24.376Z,99177.78
2022-10-19T04:10:27.971Z,99189.91
2022-10-19T04:13:31.825Z,99174.50
2022-10-19T04:16:35.554Z,99181.09
2022-10-19T04:19:38.699Z,99178.34
2022-10-19T04:22:43.607Z,99164.59
2022-10-19T04:25:46.603Z,99166.81
2022-10-19T04:28:50.617Z,99164.06
2022-10-19T04:31:54.637Z,99161.59
2022-10-19T04:34:58.007Z,99158.03
2022-10-19T04:38:02.439Z,99157.22
2022-10-19T04:41:09.853Z,99150.88
2022-10-19T04:44:13.019Z,99150.38
2022-10-19T04:47:16.679Z,99137.44
2022-10-19T04:50:19.677Z,99157.81
2022-10-19T04:56:33.500Z,99147.09
2022-10-19T04:59:36.790Z,99146.56
2022-10-19T05:02:44.686Z,99143.25
2022-10-19T05:05:48.086Z,99146.56
2022-10-19T05:08:53.057Z,99144.94
2022-10-19T05:11:56.535Z,99140.28
2022-10-19T05:14:59.588Z,99138.97
2022-10-19T05:18:03.014Z,99125.22
2022-10-19T05:21:09.389Z,99124.91
2022-10-19T05:24:14.351Z,99139.19
2022-10-19T05:27:17.593Z,99124.31
2022-10-19T05:30:22.947Z,99137.78
2022-10-19T05:33:26.089Z,99136.91
2022-10-19T05:36:34.491Z,99138.28
2022-10-19T05:39:39.633Z,99148.66
2022-10-19T05:42:43.063Z,99139.31
2022-10-19T05:45:46.194Z,99141.19
2022-10-19T05:48:50.034Z,99150.19
2022-10-19T05:51:53.107Z,99155.88
2022-10-19T05:54:58.437Z,99147.25
2022-10-19T05:58:01.635Z,99150.78
2022-10-19T06:01:05.329Z,99147.97
2022-10-19T06:04:08.572Z,99165.50
2022-10-19T06:07:11.785Z,99169.03
2022-10-19T06:10:16.404Z,99168.94
2022-10-19T06:13:20.865Z,99163.16
2022-10-19T06:16:27.100Z,99169.47
2022-10-19T06:19:30.641Z,99169.47
2022-10-19T06:22:33.748Z,99161.75
2022-10-19T06:25:38.347Z,99170.81
2022-10-19T06:28:44.660Z,99155.72
2022-10-19T06:31:49.435Z,99158.25
2022-10-19T06:34:56.675Z,99166.28
2022-10-19T06:38:00.306Z,99163.28
2022-10-19T06:41:06.082Z,99167.97
2022-10-19T06:44:10.718Z,99175.19
2022-10-19T06:47:13.984Z,99182.63
2022-10-19T06:50:17.859Z,99168.34
2022-10-19T06:53:21.110Z,99189.56
2022-10-19T06:56:27.166Z,99184.88
2022-10-19T06:59:30.266Z,99189.84
2022-10-19T07:02:34.496Z,99196.16
2022-10-19T07:05:37.679Z,99190.13
2022-10-19T07:08:43.274Z,99187.09
2022-10-19T07:11:47.878Z,99179.66
2022-10-19T07:14:51.305Z,99184.63
2022-10-19T07:17:54.677Z,99195.63
2022-10-19T07:21:00.062Z,99206.66
2022-10-19T07:24:03.118Z,99202.25
2022-10-19T07:27:07.842Z,99199.75
2022-10-19T07:30:11.882Z,99201.38
2022-10-19T07:33:15.267Z,99203.81
2022-10-19T07:36:18.387Z,99199.13
2022-10-19T07:39:22.269Z,99205.47
2022-10-19T07:42:26.736Z,99204.88
2022-10-19T07:45:30.158Z,99196.63
2022-10-19T07:48:34.736Z,99203.75
2022-10-19T07:51:39.097Z,99204.59
2022-10-19T07:54:42.530Z,99202.66
2022-10-19T07:57:50.662Z,99207.88
2022-10-19T08:01:01.712Z,99212.28
2022-10-19T08:07:28.424Z,99198.56
2022-10-19T08:10:33.135Z,99204.88
2022-10-19T08:13:38.573Z,99196.56
2022-10-19T08:16:44.432Z,99208.13
2022-10-19T08:19:47.814Z,99205.56
2022-10-19T08:22:55.084Z,99203.34
2022-10-19T08:26:01.465Z,99204.16
2022-10-19T08:29:09.296Z,99204.16
2022-10-19T08:32:12.442Z,99206.91
2022-10-19T08:35:15.870Z,99213.22
2022-10-19T08:38:19.074Z,99214.03
2022-10-19T08:41:32.168Z,99208.25
2022-10-19T08:45:19.693Z,99196.84
2022-10-19T08:48:29.982Z,99212.13
2022-10-19T08:51:43.003Z,99207.94
2022-10-19T08:54:54.903Z,99208.16
2022-10-19T08:58:13.826Z,99205.69
2022-10-19T09:01:37.813Z,99205.13
2022-10-19T09:04:49.377Z,99210.09
2022-10-19T09:07:55.667Z,99211.44
2022-10-19T09:10:58.915Z,99207.56
2022-10-19T09:14:15.150Z,99214.34
2022-10-19T09:17:19.793Z,99214.59
2022-10-19T09:20:30.687Z,99212.34
2022-10-19T09:23:40.698Z,99214.75
2022-10-19T09:26:54.360Z,99219.38
2022-10-19T09:29:59.564Z,99219.59
2022-10-19T09:33:04.637Z,99225.03
2022-10-19T09:36:15.017Z,99218.91
2022-10-19T09:39:29.656Z,99217.81
2022-10-19T09:42:36.975Z,99228.81
2022-10-19T09:45:51.452Z,99226.88
2022-10-19T09:48:56.024Z,99226.66
2022-10-19T09:51:59.188Z,99228.81
2022-10-19T09:55:07.493Z,99238.97
2022-10-19T09:58:19.433Z,99232.03
2022-10-19T10:01:40.196Z,99244.41
2022-10-19T10:05:02.913Z,99235.00
2022-10-19T10:08:15.610Z,99238.09
2022-10-19T10:11:26.245Z,99243.50
2022-10-19T10:14:35.011Z,99237.47
2022-10-19T10:17:38.493Z,99239.09
2022-10-19T10:21:00.230Z,99242.88
2022-10-19T10:24:07.148Z,99248.97
2022-10-19T10:27:31.841Z,99243.91
2022-10-19T10:30:38.398Z,99254.47
2022-10-19T10:33:46.074Z,99245.16
2022-10-19T10:36:54.870Z,99247.91
2022-10-19T10:40:02.109Z,99242.91
2022-10-19T10:43:16.232Z,99239.34
2022-10-19T10:46:26.332Z,99240.38
2022-10-19T10:49:36.423Z,99243.44
2022-10-19T10:52:41.634Z,99237.41
2022-10-19T10:55:57.435Z,99248.97
2022-10-19T10:59:07.477Z,99250.13
2022-10-19T11:02:27.148Z,99250.94
2022-10-19T11:05:35.433Z,99242.97
2022-10-19T11:08:51.160Z,99247.31
2022-10-19T11:11:58.062Z,99246.78
2022-10-19T11:15:12.321Z,99242.63
2022-10-19T11:18:26.753Z,99226.91
2022-10-19T11:21:39.057Z,99223.31
2022-10-19T11:25:03.109Z,99221.09
2022-10-19T11:28:27.427Z,99230.78
2022-10-19T11:31:45.854Z,99227.19
2022-10-19T11:35:07.813Z,99224.13
2022-10-19T11:38:34.728Z,99219.69
2022-10-19T11:41:52.496Z,99218.56
2022-10-19T11:45:15.071Z,99217.16
2022-10-19T11:48:52.862Z,99224.00
2022-10-19T11:52:05.924Z,99217.44
2022-10-19T11:55:27.176Z,99225.94
2022-10-19T11:58:56.535Z,99217.91
2022-10-19T12:02:25.460Z,99228.41
2022-10-19T12:05:39.151Z,99221.84
2022-10-19T12:09:08.674Z,99214.69
2022-10-19T12:12:34.431Z,99221.03
2022-10-19T12:15:47.429Z,99225.78
2022-10-19T12:18:54.586Z,99223.03
2022-10-19T12:22:04.239Z,99220.50
2022-10-19T12:25:09.129Z,99218.56
2022-10-19T12:28:25.851Z,99212.16
2022-10-19T12:31:32.290Z,99210.53
2022-10-19T12:34:50.675Z,99203.06
2022-10-19T12:38:05.586Z,99195.91
2022-10-19T12:41:21.175Z,99208.59
2022-10-19T12:45:10.702Z,99194.72
2022-10-19T12:48:25.585Z,99198.16
2022-10-19T12:51:29.176Z,99195.47
2022-10-19T12:54:36.685Z,99217.81
2022-10-19T12:57:43.550Z,99223.38
2022-10-19T13:01:00.722Z,99221.44
2022-10-19T13:04:13.344Z,99229.28
2022-10-19T13:07:19.393Z,99227.19
2022-10-19T13:10:27.453Z,99241.06
2022-10-19T13:14:00.666Z,99226.75
2022-10-19T13:17:05.038Z,99228.59
2022-10-19T13:20:51.930Z,99226.91
2022-10-19T13:24:27.481Z,99234.41
2022-10-19T13:27:39.595Z,99238.63
2022-10-19T13:31:06.220Z,99231.50
2022-10-19T13:34:16.431Z,99232.50
2022-10-19T13:37:21.375Z,99231.16
2022-10-19T13:40:25.272Z,99233.34
2022-10-19T13:43:33.390Z,99236.69
2022-10-19T13:46:55.466Z,99239.44
2022-10-19T13:50:18.928Z,99243.63
2022-10-19T13:53:41.970Z,99236.75
2022-10-19T13:57:16.155Z,99242.25
2022-10-19T14:00:22.891Z,99244.81
2022-10-19T14:03:49.273Z,99243.41
2022-10-19T14:06:58.369Z,99240.75
2022-10-19T14:10:16.966Z,99237.66
2022-10-19T14:13:22.300Z,99238.31
2022-10-19T14:16:25.603Z,99239.44
2022-10-19T14:19:33.488Z,99227.06
2022-10-19T14:22:37.546Z,99240.91
2022-10-19T14:25:42.236Z,99238.44
2022-10-19T14:28:45.943Z,99227.19
2022-10-19T14:31:49.868Z,99225.00
2022-10-19T14:34:55.669Z,99215.13
2022-10-19T14:38:00.341Z,99217.94
2022-10-19T14:41:06.450Z,99226.47
2022-10-19T14:44:37.442Z,99230.88
2022-10-19T14:47:58.213Z,99227.34
2022-10-19T14:51:03.194Z,99233.78
2022-10-19T14:54:13.338Z,99232.13
2022-10-19T14:57:26.784Z,99236.00
2022-10-19T15:00:33.911Z,99236.84
2022-10-19T15:03:40.228Z,99228.34
2022-10-19T15:06:46.831Z,99227.28
2022-10-19T15:09:55.795Z,99233.88
2022-10-19T15:13:08.601Z,99235.00
2022-10-19T15:16:44.402Z,99240.19
2022-10-19T15:19:47.796Z,99235.91
2022-10-19T15:22:51.062Z,99248.00
2022-10-19T15:26:01.360Z,99239.75
2022-10-19T15:29:24.705Z,99249.38
2022-10-19T15:32:35.376Z,99265.63
2022-10-19T15:35:41.987Z,99273.59
2022-10-19T15:38:48.283Z,99280.22
2022-10-19T15:41:51.691Z,99290.97
2022-10-19T15:44:56.232Z,99286.88
2022-10-19T15:48:48.095Z,99285.47
2022-10-19T15:51:53.019Z,99289.69
2022-10-19T15:54:59.852Z,99281.44
2022-10-19T15:58:03.040Z,99281.19
2022-10-19T16:01:17.286Z,99282.84
2022-10-19T16:04:20.557Z,99279.56
2022-10-19T16:07:30.346Z,99295.25
2022-10-19T16:10:33.602Z,99299.69
2022-10-19T16:13:36.801Z,99305.47
2022-10-19T16:16:41.995Z,99295.00
2022-10-19T16:19:47.558Z,99307.09
2022-10-19T16:22:51.415Z,99309.25
2022-10-19T16:25:55.016Z,99309.81
2022-10-19T16:28:58.186Z,99308.69
2022-10-19T16:32:02.871Z,99315.56
2022-10-19T16:35:08.300Z,99309.50
2022-10-19T16:38:11.751Z,99314.72
2022-10-19T16:41:15.587Z,99317.69
2022-10-19T16:44:19.531Z,99323.75
2022-10-19T16:47:23.987Z,99319.59
2022-10-19T16:53:54.258Z,99328.66
2022-10-19T16:56:57.799Z,99330.81
2022-10-19T17:00:00.854Z,99339.56
2022-10-19T17:03:05.619Z,99341.44
2022-10-19T17:06:09.894Z,99348.00
2022-10-19T17:09:40.361Z,99349.31
2022-10-19T17:12:36.982Z,99369.38
2022-10-19T17:15:43.328Z,99372.88
2022-10-19T17:18:52.379Z,99372.03
2022-10-19T17:21:57.601Z,99379.72
2022-10-19T17:25:02.021Z,99383.53
2022-10-19T17:28:05.549Z,99386.00
2022-10-19T17:31:18.409Z,99385.13
2022-10-19T17:34:24.204Z,99391.19
2022-10-19T17:37:38.309Z,99390.28
2022-10-19T17:40:42.194Z,99395.47
2022-10-19T17:43:48.251Z,99392.66
2022-10-19T17:46:51.545Z,99395.97
2022-10-19T17:49:56.030Z,99387.94
2022-10-19T17:53:00.643Z,99397.84
2022-10-19T17:56:09.797Z,99404.19
2022-10-19T17:59:13.890Z,99402.28
2022-10-19T18:02:16.996Z,99407.53
2022-10-19T18:05:21.798Z,99412.00
2022-10-19T18:08:25.272Z,99410.91
2022-10-19T18:11:31.881Z,99410.66
2022-10-19T18:14:35.168Z,99407.69
2022-10-19T18:17:39.002Z,99426.69
2022-10-19T18:20:43.805Z,99417.09
2022-10-19T18:23:48.416Z,99412.16
2022-10-19T18:26:52.697Z,99419.06
2022-10-19T18:29:56.007Z,99425.16
2022-10-19T18:32:59.668Z,99424.31
2022-10-19T18:36:16.930Z,99425.44
2022-10-19T18:39:21.241Z,99427.91
2022-10-19T18:42:24.448Z,99432.59
2022-10-19T18:45:27.551Z,99428.47
2022-10-19T18:48:32.285Z,99429.59
2022-10-19T18:51:37.938Z,99440.31
2022-10-19T18:54:41.751Z,99435.41
2022-10-19T18:57:44.952Z,99443.94
2022-10-19T19:00:48.954Z,99442.56
2022-10-19T19:03:54.638Z,99448.06
2022-10-19T19:07:00.255Z,99437.06
2022-10-19T19:10:17.013Z,99448.91
2022-10-19T19:13:23.637Z,99438.19
2022-10-19T19:16:28.870Z,99440.94
2022-10-19T19:19:32.269Z,99443.97
2022-10-19T19:22:38.266Z,99449.19
2022-10-19T19:25:42.394Z,99459.66
2022-10-19T19:28:49.156Z,99463.53
2022-10-19T19:31:54.932Z,99467.66
2022-10-19T19:34:57.997Z,99467.94
2022-10-19T19:38:02.734Z,99469.56
2022-10-19T19:41:08.511Z,99475.63
2022-10-19T19:44:12.213Z,99477.28
2022-10-19T19:47:16.366Z,99485.53
2022-10-19T19:50:19.613Z,99488.56
2022-10-19T19:53:24.224Z,99481.41
2022-10-19T19:56:28.817Z,99490.50
2022-10-19T19:59:32.192Z,99491.59
2022-10-19T20:02:37.370Z,99496.00
2022-10-19T20:05:41.861Z,99500.66
2022-10-19T20:08:47.835Z,99503.69
2022-10-19T20:11:51.277Z,99503.13
2022-10-19T20:14:55.025Z,99507.00
2022-10-19T20:17:58.094Z,99511.66
2022-10-19T20:21:03.103Z,99519.09
2022-10-19T20:24:09.370Z,99519.38
2022-10-19T20:27:12.776Z,99522.41
2022-10-19T20:30:16.085Z,99525.44
2022-10-19T20:33:19.336Z,99526.56
2022-10-19T20:36:24.859Z,99528.50
2022-10-19T20:39:29.577Z,99534.00
2022-10-19T20:42:42.368Z,99538.94
2022-10-19T20:45:47.302Z,99529.88
2022-10-19T20:48:51.868Z,99534.53
2022-10-19T20:51:55.734Z,99533.44
2022-10-19T20:55:00.297Z,99537.03
2022-10-19T20:58:03.626Z,99539.22
2022-10-19T21:01:13.015Z,99536.75
2022-10-19T21:04:18.140Z,99540.59
2022-10-19T21:07:21.256Z,99528.22
2022-10-19T21:10:25.967Z,99543.91
2022-10-19T21:13:29.401Z,99540.59
2022-10-19T21:16:34.076Z,99534.59
2022-10-19T21:19:37.181Z,99533.50
2022-10-19T21:22:41.544Z,99535.94
2022-10-19T21:25:55.437Z,99533.44
2022-10-19T21:28:59.117Z,99532.66
2022-10-19T21:32:02.592Z,99530.75
2022-10-19T21:35:06.923Z,99528.53
2022-10-19T21:38:09.992Z,99527.44
2022-10-19T21:41:20.905Z,99525.53
2022-10-19T21:44:27.022Z,99529.69
2022-10-19T21:47:30.369Z,99524.19
2022-10-19T21:50:33.445Z,99520.09
2022-10-19T21:53:36.662Z,99523.94
2022-10-19T21:56:41.474Z,99530.81
2022-10-19T21:59:44.788Z,99531.63
2022-10-19T22:02:49.604Z,99527.25
2022-10-19T22:05:53.705Z,99528.63
2022-10-19T22:08:58.488Z,99541.25
2022-10-19T22:12:03.287Z,99538.78
2022-10-19T22:15:07.954Z,99547.59
2022-10-19T22:18:11.382Z,99548.44
2022-10-19T22:21:17.080Z,99543.22
2022-10-19T22:24:20.548Z,99541.81
2022-10-19T22:27:25.117Z,99540.72
2022-10-19T22:30:28.563Z,99552.28
2022-10-19T22:33:31.741Z,99552.81
2022-10-19T22:36:35.916Z,99552.00
2022-10-19T22:39:39.219Z,99545.13
2022-10-19T22:42:43.987Z,99547.88
2022-10-19T22:45:48.761Z,99552.53
2022-10-19T22:51:55.050Z,99553.91
2022-10-19T22:54:58.549Z,99555.28
2022-10-19T22:58:03.644Z,99554.19
2022-10-19T23:01:10.908Z,99558.03
2022-10-19T23:04:14.414Z,99549.22
2022-10-19T23:07:17.795Z,99556.91
2022-10-19T23:10:21.080Z,99547.03
2022-10-19T23:13:26.077Z,99547.03
2022-10-19T23:16:29.573Z,99545.38
2022-10-19T23:19:32.951Z,99553.63
2022-10-19T23:22:36.093Z,99554.75
2022-10-19T23:25:39.736Z,99555.53
2022-10-19T23:28:46.955Z,99555.53
2022-10-19T23:31:50.522Z,99570.41
2022-10-19T23:34:53.827Z,99570.66
2022-10-19T23:37:57.270Z,99578.09
2022-10-19T23:41:00.763Z,99578.09
2022-10-19T23:44:06.348Z,99578.34
2022-10-19T23:47:09.696Z,99579.72
2022-10-19T23:50:12.992Z,99588.78
2022-10-19T23:53:16.111Z,99588.22
2022-10-19T23:56:21.662Z,99587.41
2022-10-19T23:59:26.259Z,99582.75
